sensor_id;sensor_type;location;lat;lon;timestamp;pressure;altitude;pressure_sealevel;temperature
19948;BMP180;10135;50.702;7.276;2022-09-01T00:01:24;99879.00;;;22.30
19948;BMP180;10135;50.702;7.276;2022-09-01T00:03:26;99881.00;;;22.30
19948;BMP180;10135;50.702;7.276;2022-09-01T00:05:27;99876.00;;;22.30
19948;BMP180;10135;50.702;7.276;2022-09-01T00:07:29;99879.00;;;22.20
19948;BMP180;10135;50.702;7.276;2022-09-01T00:09:31;99878.00;;;22.20
19948;BMP180;10135;50.702;7.276;2022-09-01T00:11:33;99871.00;;;22.20
19948;BMP180;10135;50.702;7.276;2022-09-01T00:13:33;99874.00;;;22.10
19948;BMP180;10135;50.702;7.276;2022-09-01T00:15:35;99877.00;;;22.10
19948;BMP180;10135;50.702;7.276;2022-09-01T00:17:36;99875.00;;;22.00
19948;BMP180;10135;50.702;7.276;2022-09-01T00:19:38;99872.00;;;22.00
19948;BMP180;10135;50.702;7.276;2022-09-01T00:21:43;99873.00;;;22.00
19948;BMP180;10135;50.702;7.276;2022-09-01T00:23:44;99873.00;;;21.90
19948;BMP180;10135;50.702;7.276;2022-09-01T00:25:45;99871.00;;;21.90
19948;BMP180;10135;50.702;7.276;2022-09-01T00:27:47;99874.00;;;21.90
19948;BMP180;10135;50.702;7.276;2022-09-01T00:29:48;99878.00;;;21.80
19948;BMP180;10135;50.702;7.276;2022-09-01T00:31:50;99882.00;;;21.80
19948;BMP180;10135;50.702;7.276;2022-09-01T00:33:51;99876.00;;;21.80
19948;BMP180;10135;50.702;7.276;2022-09-01T00:35:52;99883.00;;;21.70
19948;BMP180;10135;50.702;7.276;2022-09-01T00:37:53;99878.00;;;21.70
19948;BMP180;10135;50.702;7.276;2022-09-01T00:39:54;99880.00;;;21.70
19948;BMP180;10135;50.702;7.276;2022-09-01T00:41:54;99880.00;;;21.70
19948;BMP180;10135;50.702;7.276;2022-09-01T00:43:59;99876.00;;;21.70
19948;BMP180;10135;50.702;7.276;2022-09-01T00:46:05;99877.00;;;21.70
19948;BMP180;10135;50.702;7.276;2022-09-01T00:48:07;99879.00;;;21.70
19948;BMP180;10135;50.702;7.276;2022-09-01T00:50:11;99879.00;;;21.60
19948;BMP180;10135;50.702;7.276;2022-09-01T00:52:47;99879.00;;;21.60
19948;BMP180;10135;50.702;7.276;2022-09-01T00:54:57;99878.00;;;21.60
19948;BMP180;10135;50.702;7.276;2022-09-01T00:57:01;99878.00;;;21.60
19948;BMP180;10135;50.702;7.276;2022-09-01T00:59:05;99870.00;;;21.60
19948;BMP180;10135;50.702;7.276;2022-09-01T01:01:10;99881.00;;;21.60
19948;BMP180;10135;50.702;7.276;2022-09-01T01:03:12;99875.00;;;21.60
19948;BMP180;10135;50.702;7.276;2022-09-01T01:05:13;99871.00;;;21.60
19948;BMP180;10135;50.702;7.276;2022-09-01T01:07:15;99872.00;;;21.50
19948;BMP180;10135;50.702;7.276;2022-09-01T01:09:20;99876.00;;;21.50
19948;BMP180;10135;50.702;7.276;2022-09-01T01:11:22;99874.00;;;21.50
19948;BMP180;10135;50.702;7.276;2022-09-01T01:13:23;99866.00;;;21.50
19948;BMP180;10135;50.702;7.276;2022-09-01T01:15:28;99871.00;;;21.50
19948;BMP180;10135;50.702;7.276;2022-09-01T01:17:29;99868.00;;;21.50
19948;BMP180;10135;50.702;7.276;2022-09-01T01:19:42;99863.00;;;21.50
19948;BMP180;10135;50.702;7.276;2022-09-01T01:22:02;99867.00;;;21.50
19948;BMP180;10135;50.702;7.276;2022-09-01T01:24:32;99869.00;;;21.40
19948;BMP180;10135;50.702;7.276;2022-09-01T01:26:34;99873.00;;;21.50
19948;BMP180;10135;50.702;7.276;2022-09-01T01:28:39;99871.00;;;21.40
19948;BMP180;10135;50.702;7.276;2022-09-01T01:30:46;99871.00;;;21.40
19948;BMP180;10135;50.702;7.276;2022-09-01T01:32:50;99873.00;;;21.40
19948;BMP180;10135;50.702;7.276;2022-09-01T01:34:52;99872.00;;;21.40
19948;BMP180;10135;50.702;7.276;2022-09-01T01:36:53;99874.00;;;21.40
19948;BMP180;10135;50.702;7.276;2022-09-01T01:38:54;99866.00;;;21.40
19948;BMP180;10135;50.702;7.276;2022-09-01T01:40:56;99871.00;;;21.40
19948;BMP180;10135;50.702;7.276;2022-09-01T01:42:58;99871.00;;;21.40
19948;BMP180;10135;50.702;7.276;2022-09-01T01:45:01;99867.00;;;21.40
19948;BMP180;10135;50.702;7.276;2022-09-01T01:47:07;99877.00;;;21.40
19948;BMP180;10135;50.702;7.276;2022-09-01T01:49:14;99873.00;;;21.40
19948;BMP180;10135;50.702;7.276;2022-09-01T01:51:20;99876.00;;;21.40
19948;BMP180;10135;50.702;7.276;2022-09-01T01:53:27;99874.00;;;21.40
19948;BMP180;10135;50.702;7.276;2022-09-01T01:55:29;99875.00;;;21.40
19948;BMP180;10135;50.702;7.276;2022-09-01T01:57:30;99873.00;;;21.40
19948;BMP180;10135;50.702;7.276;2022-09-01T01:59:32;99875.00;;;21.30
19948;BMP180;10135;50.702;7.276;2022-09-01T02:01:33;99874.00;;;21.30
19948;BMP180;10135;50.702;7.276;2022-09-01T02:03:34;99875.00;;;21.30
19948;BMP180;10135;50.702;7.276;2022-09-01T02:05:38;99879.00;;;21.20
19948;BMP180;10135;50.702;7.276;2022-09-01T02:07:39;99868.00;;;21.20
19948;BMP180;10135;50.702;7.276;2022-09-01T02:09:42;99877.00;;;21.20
19948;BMP180;10135;50.702;7.276;2022-09-01T02:11:45;99871.00;;;21.20
19948;BMP180;10135;50.702;7.276;2022-09-01T02:13:46;99872.00;;;21.20
19948;BMP180;10135;50.702;7.276;2022-09-01T02:15:53;99867.00;;;21.10
19948;BMP180;10135;50.702;7.276;2022-09-01T02:17:54;99869.00;;;21.20
19948;BMP180;10135;50.702;7.276;2022-09-01T02:19:59;99871.00;;;21.10
19948;BMP180;10135;50.702;7.276;2022-09-01T02:22:00;99869.00;;;21.10
19948;BMP180;10135;50.702;7.276;2022-09-01T02:24:05;99869.00;;;21.10
19948;BMP180;10135;50.702;7.276;2022-09-01T02:26:09;99872.00;;;21.10
19948;BMP180;10135;50.702;7.276;2022-09-01T02:28:14;99868.00;;;21.10
19948;BMP180;10135;50.702;7.276;2022-09-01T02:30:15;99873.00;;;21.10
19948;BMP180;10135;50.702;7.276;2022-09-01T02:32:16;99872.00;;;21.00
19948;BMP180;10135;50.702;7.276;2022-09-01T02:34:23;99876.00;;;21.00
19948;BMP180;10135;50.702;7.276;2022-09-01T02:36:24;99873.00;;;21.00
19948;BMP180;10135;50.702;7.276;2022-09-01T02:38:28;99869.00;;;21.00
19948;BMP180;10135;50.702;7.276;2022-09-01T02:40:29;99880.00;;;21.00
19948;BMP180;10135;50.702;7.276;2022-09-01T02:42:30;99870.00;;;21.00
19948;BMP180;10135;50.702;7.276;2022-09-01T02:44:31;99874.00;;;21.00
19948;BMP180;10135;50.702;7.276;2022-09-01T02:46:32;99872.00;;;21.00
19948;BMP180;10135;50.702;7.276;2022-09-01T02:48:39;99870.00;;;21.00
19948;BMP180;10135;50.702;7.276;2022-09-01T02:50:41;99873.00;;;21.00
19948;BMP180;10135;50.702;7.276;2022-09-01T02:52:43;99872.00;;;21.00
19948;BMP180;10135;50.702;7.276;2022-09-01T02:54:44;99858.00;;;21.00
19948;BMP180;10135;50.702;7.276;2022-09-01T02:56:45;99865.00;;;21.00
19948;BMP180;10135;50.702;7.276;2022-09-01T02:58:48;99860.00;;;20.90
19948;BMP180;10135;50.702;7.276;2022-09-01T03:00:55;99854.00;;;20.90
19948;BMP180;10135;50.702;7.276;2022-09-01T03:02:59;99860.00;;;20.90
19948;BMP180;10135;50.702;7.276;2022-09-01T03:05:00;99858.00;;;20.90
19948;BMP180;10135;50.702;7.276;2022-09-01T03:07:03;99864.00;;;20.90
19948;BMP180;10135;50.702;7.276;2022-09-01T03:09:09;99864.00;;;20.80
19948;BMP180;10135;50.702;7.276;2022-09-01T03:11:10;99860.00;;;20.80
19948;BMP180;10135;50.702;7.276;2022-09-01T03:13:16;99862.00;;;20.80
19948;BMP180;10135;50.702;7.276;2022-09-01T03:15:17;99857.00;;;20.80
19948;BMP180;10135;50.702;7.276;2022-09-01T03:17:18;99861.00;;;20.80
19948;BMP180;10135;50.702;7.276;2022-09-01T03:19:19;99859.00;;;20.80
19948;BMP180;10135;50.702;7.276;2022-09-01T03:21:20;99857.00;;;20.70
19948;BMP180;10135;50.702;7.276;2022-09-01T03:23:22;99862.00;;;20.70
19948;BMP180;10135;50.702;7.276;2022-09-01T03:25:24;99857.00;;;20.70
19948;BMP180;10135;50.702;7.276;2022-09-01T03:27:25;99864.00;;;20.70
19948;BMP180;10135;50.702;7.276;2022-09-01T03:29:26;99860.00;;;20.70
19948;BMP180;10135;50.702;7.276;2022-09-01T03:31:27;99860.00;;;20.70
19948;BMP180;10135;50.702;7.276;2022-09-01T03:33:28;99862.00;;;20.60
19948;BMP180;10135;50.702;7.276;2022-09-01T03:35:29;99856.00;;;20.60
19948;BMP180;10135;50.702;7.276;2022-09-01T03:37:34;99860.00;;;20.50
19948;BMP180;10135;50.702;7.276;2022-09-01T03:39:36;99863.00;;;20.50
19948;BMP180;10135;50.702;7.276;2022-09-01T03:41:37;99857.00;;;20.50
19948;BMP180;10135;50.702;7.276;2022-09-01T03:43:38;99857.00;;;20.40
19948;BMP180;10135;50.702;7.276;2022-09-01T03:45:40;99857.00;;;20.40
19948;BMP180;10135;50.702;7.276;2022-09-01T03:47:42;99857.00;;;20.40
19948;BMP180;10135;50.702;7.276;2022-09-01T03:49:43;99853.00;;;20.40
19948;BMP180;10135;50.702;7.276;2022-09-01T03:51:44;99855.00;;;20.30
19948;BMP180;10135;50.702;7.276;2022-09-01T03:53:45;99852.00;;;20.30
19948;BMP180;10135;50.702;7.276;2022-09-01T03:55:47;99854.00;;;20.30
19948;BMP180;10135;50.702;7.276;2022-09-01T03:57:49;99853.00;;;20.30
19948;BMP180;10135;50.702;7.276;2022-09-01T03:59:50;99842.00;;;20.20
19948;BMP180;10135;50.702;7.276;2022-09-01T04:01:51;99850.00;;;20.20
19948;BMP180;10135;50.702;7.276;2022-09-01T04:03:52;99851.00;;;20.10
19948;BMP180;10135;50.702;7.276;2022-09-01T04:05:53;99847.00;;;20.10
19948;BMP180;10135;50.702;7.276;2022-09-01T04:07:57;99846.00;;;20.00
19948;BMP180;10135;50.702;7.276;2022-09-01T04:09:58;99851.00;;;20.00
19948;BMP180;10135;50.702;7.276;2022-09-01T04:11:58;99850.00;;;20.00
19948;BMP180;10135;50.702;7.276;2022-09-01T04:14:00;99850.00;;;20.00
19948;BMP180;10135;50.702;7.276;2022-09-01T04:16:02;99854.00;;;19.90
19948;BMP180;10135;50.702;7.276;2022-09-01T04:18:05;99851.00;;;19.90
19948;BMP180;10135;50.702;7.276;2022-09-01T04:20:10;99853.00;;;19.90
19948;BMP180;10135;50.702;7.276;2022-09-01T04:22:10;99863.00;;;19.80
19948;BMP180;10135;50.702;7.276;2022-09-01T04:24:13;99855.00;;;19.70
19948;BMP180;10135;50.702;7.276;2022-09-01T04:26:14;99860.00;;;19.70
19948;BMP180;10135;50.702;7.276;2022-09-01T04:28:20;99860.00;;;19.60
19948;BMP180;10135;50.702;7.276;2022-09-01T04:30:24;99855.00;;;19.60
19948;BMP180;10135;50.702;7.276;2022-09-01T04:32:26;99852.00;;;19.50
19948;BMP180;10135;50.702;7.276;2022-09-01T04:34:31;99851.00;;;19.50
19948;BMP180;10135;50.702;7.276;2022-09-01T04:36:43;99847.00;;;19.50
19948;BMP180;10135;50.702;7.276;2022-09-01T04:38:47;99854.00;;;19.40
19948;BMP180;10135;50.702;7.276;2022-09-01T04:40:48;99845.00;;;19.40
19948;BMP180;10135;50.702;7.276;2022-09-01T04:42:49;99852.00;;;19.40
19948;BMP180;10135;50.702;7.276;2022-09-01T04:44:51;99844.00;;;19.40
19948;BMP180;10135;50.702;7.276;2022-09-01T04:46:53;99849.00;;;19.40
19948;BMP180;10135;50.702;7.276;2022-09-01T04:48:55;99846.00;;;19.30
19948;BMP180;10135;50.702;7.276;2022-09-01T04:50:57;99857.00;;;19.30
19948;BMP180;10135;50.702;7.276;2022-09-01T04:52:58;99857.00;;;19.30
19948;BMP180;10135;50.702;7.276;2022-09-01T04:55:02;99849.00;;;19.30
19948;BMP180;10135;50.702;7.276;2022-09-01T04:57:03;99855.00;;;19.30
19948;BMP180;10135;50.702;7.276;2022-09-01T04:59:07;99860.00;;;19.40
19948;BMP180;10135;50.702;7.276;2022-09-01T05:01:23;99861.00;;;19.30
19948;BMP180;10135;50.702;7.276;2022-09-01T05:03:24;99854.00;;;19.40
19948;BMP180;10135;50.702;7.276;2022-09-01T05:05:25;99856.00;;;19.40
19948;BMP180;10135;50.702;7.276;2022-09-01T05:07:26;99849.00;;;19.40
19948;BMP180;10135;50.702;7.276;2022-09-01T05:09:34;99855.00;;;19.40
19948;BMP180;10135;50.702;7.276;2022-09-01T05:11:37;99858.00;;;19.40
19948;BMP180;10135;50.702;7.276;2022-09-01T05:13:39;99850.00;;;19.40
19948;BMP180;10135;50.702;7.276;2022-09-01T05:15:40;99853.00;;;19.40
19948;BMP180;10135;50.702;7.276;2022-09-01T05:17:46;99856.00;;;19.50
19948;BMP180;10135;50.702;7.276;2022-09-01T05:19:47;99855.00;;;19.50
19948;BMP180;10135;50.702;7.276;2022-09-01T05:21:50;99853.00;;;19.40
19948;BMP180;10135;50.702;7.276;2022-09-01T05:23:51;99854.00;;;19.40
19948;BMP180;10135;50.702;7.276;2022-09-01T05:25:53;99853.00;;;19.50
19948;BMP180;10135;50.702;7.276;2022-09-01T05:27:54;99859.00;;;19.50
19948;BMP180;10135;50.702;7.276;2022-09-01T05:29:56;99857.00;;;19.50
19948;BMP180;10135;50.702;7.276;2022-09-01T05:31:59;99864.00;;;19.50
19948;BMP180;10135;50.702;7.276;2022-09-01T05:34:08;99860.00;;;19.50
19948;BMP180;10135;50.702;7.276;2022-09-01T05:36:12;99860.00;;;19.50
19948;BMP180;10135;50.702;7.276;2022-09-01T05:38:14;99865.00;;;19.50
19948;BMP180;10135;50.702;7.276;2022-09-01T05:40:15;99859.00;;;19.50
19948;BMP180;10135;50.702;7.276;2022-09-01T05:42:15;99865.00;;;19.50
19948;BMP180;10135;50.702;7.276;2022-09-01T05:44:17;99860.00;;;19.60
19948;BMP180;10135;50.702;7.276;2022-09-01T05:46:23;99860.00;;;19.60
19948;BMP180;10135;50.702;7.276;2022-09-01T05:48:24;99860.00;;;19.60
19948;BMP180;10135;50.702;7.276;2022-09-01T05:50:24;99863.00;;;19.60
19948;BMP180;10135;50.702;7.276;2022-09-01T05:52:32;99864.00;;;19.70
19948;BMP180;10135;50.702;7.276;2022-09-01T05:54:33;99866.00;;;19.70
19948;BMP180;10135;50.702;7.276;2022-09-01T05:56:36;99870.00;;;19.80
19948;BMP180;10135;50.702;7.276;2022-09-01T05:58:40;99873.00;;;19.80
19948;BMP180;10135;50.702;7.276;2022-09-01T06:00:46;99869.00;;;19.90
19948;BMP180;10135;50.702;7.276;2022-09-01T06:02:48;99875.00;;;20.00
19948;BMP180;10135;50.702;7.276;2022-09-01T06:04:49;99868.00;;;20.10
19948;BMP180;10135;50.702;7.276;2022-09-01T06:06:50;99870.00;;;20.10
19948;BMP180;10135;50.702;7.276;2022-09-01T06:08:54;99870.00;;;20.20
19948;BMP180;10135;50.702;7.276;2022-09-01T06:10:58;99866.00;;;20.40
19948;BMP180;10135;50.702;7.276;2022-09-01T06:12:59;99865.00;;;20.50
19948;BMP180;10135;50.702;7.276;2022-09-01T06:15:02;99872.00;;;20.60
19948;BMP180;10135;50.702;7.276;2022-09-01T06:17:03;99872.00;;;20.70
19948;BMP180;10135;50.702;7.276;2022-09-01T06:19:04;99873.00;;;20.90
19948;BMP180;10135;50.702;7.276;2022-09-01T06:21:05;99869.00;;;21.10
19948;BMP180;10135;50.702;7.276;2022-09-01T06:23:09;99881.00;;;21.30
19948;BMP180;10135;50.702;7.276;2022-09-01T06:25:11;99883.00;;;21.40
19948;BMP180;10135;50.702;7.276;2022-09-01T06:27:13;99876.00;;;21.50
19948;BMP180;10135;50.702;7.276;2022-09-01T06:29:19;99880.00;;;21.50
19948;BMP180;10135;50.702;7.276;2022-09-01T06:31:27;99882.00;;;21.50
19948;BMP180;10135;50.702;7.276;2022-09-01T06:33:29;99878.00;;;21.60
19948;BMP180;10135;50.702;7.276;2022-09-01T06:35:30;99878.00;;;21.60
19948;BMP180;10135;50.702;7.276;2022-09-01T06:37:31;99879.00;;;21.60
19948;BMP180;10135;50.702;7.276;2022-09-01T06:39:33;99878.00;;;21.50
19948;BMP180;10135;50.702;7.276;2022-09-01T06:41:35;99882.00;;;21.60
19948;BMP180;10135;50.702;7.276;2022-09-01T06:43:41;99880.00;;;21.50
19948;BMP180;10135;50.702;7.276;2022-09-01T06:45:45;99881.00;;;21.60
19948;BMP180;10135;50.702;7.276;2022-09-01T06:47:53;99880.00;;;21.60
19948;BMP180;10135;50.702;7.276;2022-09-01T06:49:55;99884.00;;;21.60
19948;BMP180;10135;50.702;7.276;2022-09-01T06:52:00;99886.00;;;21.60
19948;BMP180;10135;50.702;7.276;2022-09-01T06:54:02;99884.00;;;21.60
19948;BMP180;10135;50.702;7.276;2022-09-01T06:56:03;99891.00;;;21.60
19948;BMP180;10135;50.702;7.276;2022-09-01T06:58:06;99890.00;;;21.60
19948;BMP180;10135;50.702;7.276;2022-09-01T07:00:11;99891.00;;;21.60
19948;BMP180;10135;50.702;7.276;2022-09-01T07:02:21;99893.00;;;21.60
19948;BMP180;10135;50.702;7.276;2022-09-01T07:04:21;99896.00;;;21.60
19948;BMP180;10135;50.702;7.276;2022-09-01T07:06:24;99899.00;;;21.60
19948;BMP180;10135;50.702;7.276;2022-09-01T07:08:26;99890.00;;;21.70
19948;BMP180;10135;50.702;7.276;2022-09-01T07:10:28;99896.00;;;21.70
19948;BMP180;10135;50.702;7.276;2022-09-01T07:12:29;99894.00;;;21.70
19948;BMP180;10135;50.702;7.276;2022-09-01T07:14:31;99895.00;;;21.70
19948;BMP180;10135;50.702;7.276;2022-09-01T07:16:35;99900.00;;;21.70
19948;BMP180;10135;50.702;7.276;2022-09-01T07:18:39;99893.00;;;21.80
19948;BMP180;10135;50.702;7.276;2022-09-01T07:20:40;99893.00;;;21.80
19948;BMP180;10135;50.702;7.276;2022-09-01T07:22:41;99895.00;;;21.90
19948;BMP180;10135;50.702;7.276;2022-09-01T07:24:42;99898.00;;;21.90
19948;BMP180;10135;50.702;7.276;2022-09-01T07:26:46;99886.00;;;21.90
19948;BMP180;10135;50.702;7.276;2022-09-01T07:28:53;99887.00;;;22.00
19948;BMP180;10135;50.702;7.276;2022-09-01T07:30:53;99896.00;;;22.00
19948;BMP180;10135;50.702;7.276;2022-09-01T07:32:54;99891.00;;;22.00
19948;BMP180;10135;50.702;7.276;2022-09-01T07:34:55;99887.00;;;22.00
19948;BMP180;10135;50.702;7.276;2022-09-01T07:36:56;99896.00;;;22.10
19948;BMP180;10135;50.702;7.276;2022-09-01T07:38:59;99890.00;;;22.10
19948;BMP180;10135;50.702;7.276;2022-09-01T07:41:01;99895.00;;;22.10
19948;BMP180;10135;50.702;7.276;2022-09-01T07:43:01;99892.00;;;22.20
19948;BMP180;10135;50.702;7.276;2022-09-01T07:45:09;99900.00;;;22.20
19948;BMP180;10135;50.702;7.276;2022-09-01T07:47:11;99896.00;;;22.20
19948;BMP180;10135;50.702;7.276;2022-09-01T07:49:13;99897.00;;;22.30
19948;BMP180;10135;50.702;7.276;2022-09-01T07:51:17;99896.00;;;22.30
19948;BMP180;10135;50.702;7.276;2022-09-01T07:53:24;99893.00;;;22.30
19948;BMP180;10135;50.702;7.276;2022-09-01T07:55:24;99899.00;;;22.40
19948;BMP180;10135;50.702;7.276;2022-09-01T07:57:27;99897.00;;;22.40
19948;BMP180;10135;50.702;7.276;2022-09-01T07:59:28;99899.00;;;22.40
19948;BMP180;10135;50.702;7.276;2022-09-01T08:01:29;99897.00;;;22.50
19948;BMP180;10135;50.702;7.276;2022-09-01T08:03:30;99894.00;;;22.50
19948;BMP180;10135;50.702;7.276;2022-09-01T08:05:32;99886.00;;;22.60
19948;BMP180;10135;50.702;7.276;2022-09-01T08:07:35;99886.00;;;22.60
19948;BMP180;10135;50.702;7.276;2022-09-01T08:09:37;99893.00;;;22.60
19948;BMP180;10135;50.702;7.276;2022-09-01T08:11:37;99895.00;;;22.70
19948;BMP180;10135;50.702;7.276;2022-09-01T08:13:38;99892.00;;;22.70
19948;BMP180;10135;50.702;7.276;2022-09-01T08:15:40;99890.00;;;22.70
19948;BMP180;10135;50.702;7.276;2022-09-01T08:17:41;99896.00;;;22.80
19948;BMP180;10135;50.702;7.276;2022-09-01T08:19:42;99891.00;;;22.80
19948;BMP180;10135;50.702;7.276;2022-09-01T08:21:42;99896.00;;;22.80
19948;BMP180;10135;50.702;7.276;2022-09-01T08:23:44;99902.00;;;22.90
19948;BMP180;10135;50.702;7.276;2022-09-01T08:25:48;99902.00;;;22.90
19948;BMP180;10135;50.702;7.276;2022-09-01T08:27:49;99902.00;;;23.00
19948;BMP180;10135;50.702;7.276;2022-09-01T08:29:50;99900.00;;;23.00
19948;BMP180;10135;50.702;7.276;2022-09-01T08:31:51;99896.00;;;23.00
19948;BMP180;10135;50.702;7.276;2022-09-01T08:33:53;99906.00;;;23.10
19948;BMP180;10135;50.702;7.276;2022-09-01T08:35:54;99903.00;;;23.10
19948;BMP180;10135;50.702;7.276;2022-09-01T08:37:58;99898.00;;;23.20
19948;BMP180;10135;50.702;7.276;2022-09-01T08:39:59;99895.00;;;23.20
19948;BMP180;10135;50.702;7.276;2022-09-01T08:42:39;99899.00;;;23.30
19948;BMP180;10135;50.702;7.276;2022-09-01T08:45:10;99892.00;;;23.30
19948;BMP180;10135;50.702;7.276;2022-09-01T08:47:17;99901.00;;;23.40
19948;BMP180;10135;50.702;7.276;2022-09-01T08:49:22;99891.00;;;23.50
19948;BMP180;10135;50.702;7.276;2022-09-01T08:51:38;99890.00;;;23.50
19948;BMP180;10135;50.702;7.276;2022-09-01T08:53:50;99896.00;;;23.50
19948;BMP180;10135;50.702;7.276;2022-09-01T08:55:56;99892.00;;;23.60
19948;BMP180;10135;50.702;7.276;2022-09-01T08:58:00;99897.00;;;23.60
19948;BMP180;10135;50.702;7.276;2022-09-01T09:00:01;99897.00;;;23.70
19948;BMP180;10135;50.702;7.276;2022-09-01T09:02:57;99898.00;;;23.70
19948;BMP180;10135;50.702;7.276;2022-09-01T09:10:17;99889.00;;;23.80
19948;BMP180;10135;50.702;7.276;2022-09-01T09:12:48;99892.00;;;23.80
19948;BMP180;10135;50.702;7.276;2022-09-01T09:16:57;99879.00;;;23.90
19948;BMP180;10135;50.702;7.276;2022-09-01T09:19:10;99880.00;;;23.90
19948;BMP180;10135;50.702;7.276;2022-09-01T09:21:21;99884.00;;;23.90
19948;BMP180;10135;50.702;7.276;2022-09-01T09:23:37;99885.00;;;24.00
19948;BMP180;10135;50.702;7.276;2022-09-01T09:25:38;99876.00;;;24.00
19948;BMP180;10135;50.702;7.276;2022-09-01T09:27:43;99872.00;;;24.00
19948;BMP180;10135;50.702;7.276;2022-09-01T09:29:50;99876.00;;;24.10
19948;BMP180;10135;50.702;7.276;2022-09-01T09:32:08;99877.00;;;24.10
19948;BMP180;10135;50.702;7.276;2022-09-01T09:36:34;99866.00;;;24.20
19948;BMP180;10135;50.702;7.276;2022-09-01T09:38:35;99869.00;;;24.20
19948;BMP180;10135;50.702;7.276;2022-09-01T09:40:35;99863.00;;;24.30
19948;BMP180;10135;50.702;7.276;2022-09-01T09:44:57;99861.00;;;24.30
19948;BMP180;10135;50.702;7.276;2022-09-01T09:46:59;99867.00;;;24.40
19948;BMP180;10135;50.702;7.276;2022-09-01T09:49:30;99856.00;;;24.40
19948;BMP180;10135;50.702;7.276;2022-09-01T09:51:32;99856.00;;;24.50
19948;BMP180;10135;50.702;7.276;2022-09-01T09:53:33;99851.00;;;24.50
19948;BMP180;10135;50.702;7.276;2022-09-01T09:55:33;99852.00;;;24.50
19948;BMP180;10135;50.702;7.276;2022-09-01T09:57:39;99848.00;;;24.50
19948;BMP180;10135;50.702;7.276;2022-09-01T10:01:48;99838.00;;;24.50
19948;BMP180;10135;50.702;7.276;2022-09-01T10:03:57;99850.00;;;24.50
19948;BMP180;10135;50.702;7.276;2022-09-01T10:05:58;99841.00;;;24.50
19948;BMP180;10135;50.702;7.276;2022-09-01T10:07:59;99839.00;;;24.50
19948;BMP180;10135;50.702;7.276;2022-09-01T10:10:25;99833.00;;;24.60
19948;BMP180;10135;50.702;7.276;2022-09-01T10:12:28;99837.00;;;24.60
19948;BMP180;10135;50.702;7.276;2022-09-01T10:14:41;99834.00;;;24.70
19948;BMP180;10135;50.702;7.276;2022-09-01T10:16:47;99838.00;;;24.70
19948;BMP180;10135;50.702;7.276;2022-09-01T10:18:50;99835.00;;;24.70
19948;BMP180;10135;50.702;7.276;2022-09-01T10:23:07;99828.00;;;24.80
19948;BMP180;10135;50.702;7.276;2022-09-01T10:25:32;99826.00;;;24.80
19948;BMP180;10135;50.702;7.276;2022-09-01T10:27:39;99834.00;;;24.80
19948;BMP180;10135;50.702;7.276;2022-09-01T10:29:47;99825.00;;;24.90
19948;BMP180;10135;50.702;7.276;2022-09-01T10:31:50;99826.00;;;25.00
19948;BMP180;10135;50.702;7.276;2022-09-01T10:33:52;99821.00;;;25.00
19948;BMP180;10135;50.702;7.276;2022-09-01T10:35:54;99829.00;;;25.00
19948;BMP180;10135;50.702;7.276;2022-09-01T10:37:59;99826.00;;;25.10
19948;BMP180;10135;50.702;7.276;2022-09-01T10:40:34;99830.00;;;25.10
19948;BMP180;10135;50.702;7.276;2022-09-01T10:42:35;99829.00;;;25.20
19948;BMP180;10135;50.702;7.276;2022-09-01T10:44:55;99827.00;;;25.10
19948;BMP180;10135;50.702;7.276;2022-09-01T10:47:00;99825.00;;;25.20
19948;BMP180;10135;50.702;7.276;2022-09-01T10:50:01;99826.00;;;25.20
19948;BMP180;10135;50.702;7.276;2022-09-01T10:51:44;99824.00;;;25.20
19948;BMP180;10135;50.702;7.276;2022-09-01T10:53:50;99822.00;;;25.20
19948;BMP180;10135;50.702;7.276;2022-09-01T10:56:19;99820.00;;;25.20
19948;BMP180;10135;50.702;7.276;2022-09-01T11:00:47;99812.00;;;25.20
19948;BMP180;10135;50.702;7.276;2022-09-01T11:05:14;99808.00;;;25.30
19948;BMP180;10135;50.702;7.276;2022-09-01T11:09:28;99805.00;;;25.30
19948;BMP180;10135;50.702;7.276;2022-09-01T11:11:48;99811.00;;;25.40
19948;BMP180;10135;50.702;7.276;2022-09-01T11:13:53;99804.00;;;25.40
19948;BMP180;10135;50.702;7.276;2022-09-01T11:15:55;99806.00;;;25.50
19948;BMP180;10135;50.702;7.276;2022-09-01T11:17:57;99811.00;;;25.50
19948;BMP180;10135;50.702;7.276;2022-09-01T11:20:26;99802.00;;;25.60
19948;BMP180;10135;50.702;7.276;2022-09-01T11:22:39;99806.00;;;25.70
19948;BMP180;10135;50.702;7.276;2022-09-01T11:26:47;99805.00;;;25.80
19948;BMP180;10135;50.702;7.276;2022-09-01T11:28:48;99800.00;;;25.90
19948;BMP180;10135;50.702;7.276;2022-09-01T11:30:58;99808.00;;;26.00
19948;BMP180;10135;50.702;7.276;2022-09-01T11:35:33;99804.00;;;26.20
19948;BMP180;10135;50.702;7.276;2022-09-01T11:37:35;99797.00;;;26.30
19948;BMP180;10135;50.702;7.276;2022-09-01T11:39:54;99798.00;;;26.30
19948;BMP180;10135;50.702;7.276;2022-09-01T11:42:00;99795.00;;;26.50
19948;BMP180;10135;50.702;7.276;2022-09-01T11:44:14;99796.00;;;26.50
19948;BMP180;10135;50.702;7.276;2022-09-01T11:46:36;99794.00;;;26.60
19948;BMP180;10135;50.702;7.276;2022-09-01T11:48:38;99792.00;;;26.70
19948;BMP180;10135;50.702;7.276;2022-09-01T11:50:57;99791.00;;;26.80
19948;BMP180;10135;50.702;7.276;2022-09-01T11:53:14;99799.00;;;26.80
19948;BMP180;10135;50.702;7.276;2022-09-01T11:55:34;99799.00;;;26.80
19948;BMP180;10135;50.702;7.276;2022-09-01T11:57:39;99800.00;;;26.80
19948;BMP180;10135;50.702;7.276;2022-09-01T11:59:42;99796.00;;;26.80
19948;BMP180;10135;50.702;7.276;2022-09-01T12:01:43;99795.00;;;26.70
19948;BMP180;10135;50.702;7.276;2022-09-01T12:03:46;99796.00;;;26.70
19948;BMP180;10135;50.702;7.276;2022-09-01T12:05:54;99794.00;;;26.60
19948;BMP180;10135;50.702;7.276;2022-09-01T12:08:05;99793.00;;;26.60
19948;BMP180;10135;50.702;7.276;2022-09-01T12:10:30;99788.00;;;26.50
19948;BMP180;10135;50.702;7.276;2022-09-01T12:12:38;99786.00;;;26.50
19948;BMP180;10135;50.702;7.276;2022-09-01T12:14:39;99785.00;;;26.50
19948;BMP180;10135;50.702;7.276;2022-09-01T12:16:40;99781.00;;;26.40
19948;BMP180;10135;50.702;7.276;2022-09-01T12:18:48;99786.00;;;26.40
19948;BMP180;10135;50.702;7.276;2022-09-01T12:20:51;99781.00;;;26.40
19948;BMP180;10135;50.702;7.276;2022-09-01T12:22:54;99781.00;;;26.40
19948;BMP180;10135;50.702;7.276;2022-09-01T12:24:55;99765.00;;;26.40
19948;BMP180;10135;50.702;7.276;2022-09-01T12:26:56;99766.00;;;26.40